sensor_id;sensor_type;location;lat;lon;timestamp;temperature;humidity
16158;DHT22;8184;60.256;18.694;2023-07-30T00:01:48;17.00;99.90
16158;DHT22;8184;60.256;18.694;2023-07-30T00:04:23;17.00;99.90
16158;DHT22;8184;60.256;18.694;2023-07-30T00:06:54;16.80;99.90
16158;DHT22;8184;60.256;18.694;2023-07-30T00:09:22;16.90;99.90
16158;DHT22;8184;60.256;18.694;2023-07-30T00:11:50;16.80;99.90
16158;DHT22;8184;60.256;18.694;2023-07-30T00:14:18;16.80;99.90
16158;DHT22;8184;60.256;18.694;2023-07-30T00:16:49;16.80;99.90
16158;DHT22;8184;60.256;18.694;2023-07-30T00:19:17;16.80;99.90
16158;DHT22;8184;60.256;18.694;2023-07-30T00:21:47;16.80;99.90
16158;DHT22;8184;60.256;18.694;2023-07-30T00:24:19;16.90;99.90
16158;DHT22;8184;60.256;18.694;2023-07-30T00:26:47;16.80;99.90
16158;DHT22;8184;60.256;18.694;2023-07-30T00:29:16;16.80;99.90
16158;DHT22;8184;60.256;18.694;2023-07-30T00:31:44;16.70;99.90
16158;DHT22;8184;60.256;18.694;2023-07-30T00:34:15;16.70;99.90
16158;DHT22;8184;60.256;18.694;2023-07-30T00:36:43;16.80;99.90
16158;DHT22;8184;60.256;18.694;2023-07-30T00:39:13;16.70;99.90
16158;DHT22;8184;60.256;18.694;2023-07-30T00:41:41;16.80;99.90
16158;DHT22;8184;60.256;18.694;2023-07-30T00:44:09;16.90;99.90
16158;DHT22;8184;60.256;18.694;2023-07-30T00:46:37;16.90;99.90
16158;DHT22;8184;60.256;18.694;2023-07-30T00:49:05;16.80;99.90
16158;DHT22;8184;60.256;18.694;2023-07-30T00:51:34;16.70;99.90
16158;DHT22;8184;60.256;18.694;2023-07-30T00:54:03;16.70;99.90
16158;DHT22;8184;60.256;18.694;2023-07-30T00:56:33;16.70;99.90
16158;DHT22;8184;60.256;18.694;2023-07-30T00:59:02;16.60;99.90
16158;DHT22;8184;60.256;18.694;2023-07-30T01:01:30;16.50;99.90
16158;DHT22;8184;60.256;18.694;2023-07-30T01:04:01;16.60;99.90
16158;DHT22;8184;60.256;18.694;2023-07-30T01:06:31;16.60;99.90
16158;DHT22;8184;60.256;18.694;2023-07-30T01:09:00;16.50;99.90
16158;DHT22;8184;60.256;18.694;2023-07-30T01:11:28;16.40;99.90
16158;DHT22;8184;60.256;18.694;2023-07-30T01:13:58;16.40;99.90
16158;DHT22;8184;60.256;18.694;2023-07-30T01:16:27;16.30;99.90
16158;DHT22;8184;60.256;18.694;2023-07-30T01:18:56;16.30;99.90
16158;DHT22;8184;60.256;18.694;2023-07-30T01:21:27;16.20;99.90
16158;DHT22;8184;60.256;18.694;2023-07-30T01:23:57;16.20;99.90
16158;DHT22;8184;60.256;18.694;2023-07-30T01:26:27;16.10;99.90
16158;DHT22;8184;60.256;18.694;2023-07-30T01:28:57;15.90;99.90
16158;DHT22;8184;60.256;18.694;2023-07-30T01:31:26;16.00;99.90
16158;DHT22;8184;60.256;18.694;2023-07-30T01:33:55;15.90;99.90
16158;DHT22;8184;60.256;18.694;2023-07-30T01:36:24;16.00;99.90
16158;DHT22;8184;60.256;18.694;2023-07-30T01:38:53;15.90;99.90
16158;DHT22;8184;60.256;18.694;2023-07-30T01:41:22;16.00;99.90
16158;DHT22;8184;60.256;18.694;2023-07-30T01:43:51;16.10;99.90
16158;DHT22;8184;60.256;18.694;2023-07-30T01:46:19;16.10;99.90
16158;DHT22;8184;60.256;18.694;2023-07-30T01:48:48;16.10;99.90
16158;DHT22;8184;60.256;18.694;2023-07-30T01:51:16;16.10;99.90
16158;DHT22;8184;60.256;18.694;2023-07-30T01:53:44;16.10;99.90
16158;DHT22;8184;60.256;18.694;2023-07-30T01:56:14;16.00;99.90
16158;DHT22;8184;60.256;18.694;2023-07-30T01:58:42;16.00;99.90
16158;DHT22;8184;60.256;18.694;2023-07-30T02:01:10;15.90;99.90
16158;DHT22;8184;60.256;18.694;2023-07-30T02:03:39;15.80;99.90
16158;DHT22;8184;60.256;18.694;2023-07-30T02:06:07;15.80;99.90
16158;DHT22;8184;60.256;18.694;2023-07-30T02:08:35;15.90;99.90
16158;DHT22;8184;60.256;18.694;2023-07-30T02:11:03;16.00;99.90
16158;DHT22;8184;60.256;18.694;2023-07-30T02:13:32;15.90;99.90
16158;DHT22;8184;60.256;18.694;2023-07-30T02:16:01;15.90;99.90
16158;DHT22;8184;60.256;18.694;2023-07-30T02:18:31;15.90;99.90
16158;DHT22;8184;60.256;18.694;2023-07-30T02:20:59;15.90;99.90
16158;DHT22;8184;60.256;18.694;2023-07-30T02:23:28;15.80;99.90
16158;DHT22;8184;60.256;18.694;2023-07-30T02:25:56;15.80;99.90
16158;DHT22;8184;60.256;18.694;2023-07-30T02:28:26;15.80;99.90
16158;DHT22;8184;60.256;18.694;2023-07-30T02:30:55;15.70;99.90
16158;DHT22;8184;60.256;18.694;2023-07-30T02:33:24;15.70;99.90
16158;DHT22;8184;60.256;18.694;2023-07-30T02:35:52;15.80;99.90
16158;DHT22;8184;60.256;18.694;2023-07-30T02:38:20;15.80;99.90
16158;DHT22;8184;60.256;18.694;2023-07-30T02:40:48;15.80;99.90
16158;DHT22;8184;60.256;18.694;2023-07-30T02:43:16;15.70;99.90
16158;DHT22;8184;60.256;18.694;2023-07-30T02:45:46;15.80;99.90
16158;DHT22;8184;60.256;18.694;2023-07-30T02:48:16;15.90;99.90
16158;DHT22;8184;60.256;18.694;2023-07-30T02:50:44;15.80;99.90
16158;DHT22;8184;60.256;18.694;2023-07-30T02:53:15;15.70;99.90
16158;DHT22;8184;60.256;18.694;2023-07-30T02:55:43;15.60;99.90
16158;DHT22;8184;60.256;18.694;2023-07-30T02:58:11;15.70;99.90
16158;DHT22;8184;60.256;18.694;2023-07-30T03:00:39;15.60;99.90
16158;DHT22;8184;60.256;18.694;2023-07-30T03:03:07;15.70;99.90
16158;DHT22;8184;60.256;18.694;2023-07-30T03:05:39;15.60;99.90
16158;DHT22;8184;60.256;18.694;2023-07-30T03:08:09;15.70;99.90
16158;DHT22;8184;60.256;18.694;2023-07-30T03:10:37;15.80;99.90
16158;DHT22;8184;60.256;18.694;2023-07-30T03:13:05;15.70;99.90
16158;DHT22;8184;60.256;18.694;2023-07-30T03:15:36;15.80;99.90
16158;DHT22;8184;60.256;18.694;2023-07-30T03:18:04;15.80;99.90
16158;DHT22;8184;60.256;18.694;2023-07-30T03:20:32;15.80;99.90
16158;DHT22;8184;60.256;18.694;2023-07-30T03:23:02;15.80;99.90
16158;DHT22;8184;60.256;18.694;2023-07-30T03:25:30;15.90;99.90
16158;DHT22;8184;60.256;18.694;2023-07-30T03:28:01;15.90;99.90
16158;DHT22;8184;60.256;18.694;2023-07-30T03:30:29;16.00;99.90
16158;DHT22;8184;60.256;18.694;2023-07-30T03:32:57;16.30;99.90
16158;DHT22;8184;60.256;18.694;2023-07-30T03:35:25;16.50;99.90
16158;DHT22;8184;60.256;18.694;2023-07-30T03:37:53;16.50;99.90
16158;DHT22;8184;60.256;18.694;2023-07-30T03:40:23;16.50;99.90
16158;DHT22;8184;60.256;18.694;2023-07-30T03:42:51;16.70;99.90
16158;DHT22;8184;60.256;18.694;2023-07-30T03:45:19;16.60;99.90
16158;DHT22;8184;60.256;18.694;2023-07-30T03:47:49;16.70;99.90
16158;DHT22;8184;60.256;18.694;2023-07-30T03:50:17;16.80;99.90
16158;DHT22;8184;60.256;18.694;2023-07-30T03:52:45;17.00;99.90
16158;DHT22;8184;60.256;18.694;2023-07-30T03:55:14;17.30;99.90
16158;DHT22;8184;60.256;18.694;2023-07-30T03:57:43;17.80;99.90
16158;DHT22;8184;60.256;18.694;2023-07-30T04:00:11;17.80;99.90
16158;DHT22;8184;60.256;18.694;2023-07-30T04:02:41;17.70;99.90
16158;DHT22;8184;60.256;18.694;2023-07-30T04:05:09;17.80;99.90
16158;DHT22;8184;60.256;18.694;2023-07-30T04:07:40;17.60;99.90
16158;DHT22;8184;60.256;18.694;2023-07-30T04:10:08;17.60;99.90
16158;DHT22;8184;60.256;18.694;2023-07-30T04:12:36;17.60;99.90
16158;DHT22;8184;60.256;18.694;2023-07-30T04:15:07;17.70;99.90
16158;DHT22;8184;60.256;18.694;2023-07-30T04:17:36;17.70;99.90
16158;DHT22;8184;60.256;18.694;2023-07-30T04:20:04;17.80;99.90
16158;DHT22;8184;60.256;18.694;2023-07-30T04:22:33;17.80;99.90
16158;DHT22;8184;60.256;18.694;2023-07-30T04:25:01;17.80;99.90
16158;DHT22;8184;60.256;18.694;2023-07-30T04:27:29;17.80;99.90
16158;DHT22;8184;60.256;18.694;2023-07-30T04:30:00;17.80;99.90
16158;DHT22;8184;60.256;18.694;2023-07-30T04:32:30;17.80;99.90
16158;DHT22;8184;60.256;18.694;2023-07-30T04:34:58;17.80;99.90
16158;DHT22;8184;60.256;18.694;2023-07-30T04:37:26;17.90;99.90
16158;DHT22;8184;60.256;18.694;2023-07-30T04:39:57;17.90;99.90
16158;DHT22;8184;60.256;18.694;2023-07-30T04:42:25;17.90;99.90
16158;DHT22;8184;60.256;18.694;2023-07-30T04:44:54;17.80;99.90
16158;DHT22;8184;60.256;18.694;2023-07-30T04:47:22;17.80;99.90
16158;DHT22;8184;60.256;18.694;2023-07-30T04:49:52;17.90;99.90
16158;DHT22;8184;60.256;18.694;2023-07-30T04:52:22;17.90;99.90
16158;DHT22;8184;60.256;18.694;2023-07-30T04:54:50;17.90;99.90
16158;DHT22;8184;60.256;18.694;2023-07-30T04:57:19;18.00;99.90
16158;DHT22;8184;60.256;18.694;2023-07-30T04:59:47;18.00;99.90
16158;DHT22;8184;60.256;18.694;2023-07-30T05:02:18;18.10;99.90
16158;DHT22;8184;60.256;18.694;2023-07-30T05:04:46;18.50;99.90
16158;DHT22;8184;60.256;18.694;2023-07-30T05:07:15;18.90;99.90
16158;DHT22;8184;60.256;18.694;2023-07-30T05:09:43;19.30;99.90
16158;DHT22;8184;60.256;18.694;2023-07-30T05:12:11;19.40;99.90
16158;DHT22;8184;60.256;18.694;2023-07-30T05:14:40;19.50;99.90
16158;DHT22;8184;60.256;18.694;2023-07-30T05:17:08;19.90;99.90
16158;DHT22;8184;60.256;18.694;2023-07-30T05:19:36;20.20;99.90
16158;DHT22;8184;60.256;18.694;2023-07-30T05:22:05;20.30;99.90
16158;DHT22;8184;60.256;18.694;2023-07-30T05:24:36;20.40;99.90
16158;DHT22;8184;60.256;18.694;2023-07-30T05:27:06;20.50;99.90
16158;DHT22;8184;60.256;18.694;2023-07-30T05:29:35;20.40;99.90
16158;DHT22;8184;60.256;18.694;2023-07-30T05:32:03;20.70;99.90
16158;DHT22;8184;60.256;18.694;2023-07-30T05:34:34;21.00;99.90
16158;DHT22;8184;60.256;18.694;2023-07-30T05:37:03;21.10;99.90
16158;DHT22;8184;60.256;18.694;2023-07-30T05:39:31;21.30;99.90
16158;DHT22;8184;60.256;18.694;2023-07-30T05:42:01;21.50;99.90
16158;DHT22;8184;60.256;18.694;2023-07-30T05:44:33;21.60;99.90
16158;DHT22;8184;60.256;18.694;2023-07-30T05:47:03;21.60;99.90
16158;DHT22;8184;60.256;18.694;2023-07-30T05:49:32;21.60;99.90
16158;DHT22;8184;60.256;18.694;2023-07-30T05:52:01;21.60;99.90
16158;DHT22;8184;60.256;18.694;2023-07-30T05:54:29;21.60;99.90
16158;DHT22;8184;60.256;18.694;2023-07-30T05:56:57;21.50;99.90
16158;DHT22;8184;60.256;18.694;2023-07-30T05:59:27;21.50;99.90
16158;DHT22;8184;60.256;18.694;2023-07-30T06:01:55;22.00;99.90
16158;DHT22;8184;60.256;18.694;2023-07-30T06:04:24;22.40;99.90
16158;DHT22;8184;60.256;18.694;2023-07-30T06:06:52;22.50;99.90
16158;DHT22;8184;60.256;18.694;2023-07-30T06:09:20;22.70;99.90
16158;DHT22;8184;60.256;18.694;2023-07-30T06:11:49;22.80;99.90
16158;DHT22;8184;60.256;18.694;2023-07-30T06:14:18;23.00;99.90
16158;DHT22;8184;60.256;18.694;2023-07-30T06:16:47;22.90;99.90
16158;DHT22;8184;60.256;18.694;2023-07-30T06:19:16;23.20;99.90
16158;DHT22;8184;60.256;18.694;2023-07-30T06:21:44;23.30;99.90
16158;DHT22;8184;60.256;18.694;2023-07-30T06:24:12;23.30;99.90
16158;DHT22;8184;60.256;18.694;2023-07-30T06:26:40;22.80;99.90
16158;DHT22;8184;60.256;18.694;2023-07-30T06:29:08;22.90;99.90
16158;DHT22;8184;60.256;18.694;2023-07-30T06:31:38;23.20;99.90
16158;DHT22;8184;60.256;18.694;2023-07-30T06:34:11;23.30;99.90
16158;DHT22;8184;60.256;18.694;2023-07-30T06:36:42;23.50;99.90
16158;DHT22;8184;60.256;18.694;2023-07-30T06:39:10;23.80;99.90
16158;DHT22;8184;60.256;18.694;2023-07-30T06:41:38;23.60;99.90
16158;DHT22;8184;60.256;18.694;2023-07-30T06:44:10;23.20;99.90
16158;DHT22;8184;60.256;18.694;2023-07-30T06:46:39;23.20;99.90
16158;DHT22;8184;60.256;18.694;2023-07-30T06:49:29;23.20;99.90
16158;DHT22;8184;60.256;18.694;2023-07-30T06:52:00;23.40;99.90
16158;DHT22;8184;60.256;18.694;2023-07-30T06:54:29;23.70;99.90
16158;DHT22;8184;60.256;18.694;2023-07-30T06:57:05;24.00;99.90
16158;DHT22;8184;60.256;18.694;2023-07-30T06:59:34;24.00;99.90
16158;DHT22;8184;60.256;18.694;2023-07-30T07:02:03;23.80;99.90
16158;DHT22;8184;60.256;18.694;2023-07-30T07:04:33;23.70;99.90
16158;DHT22;8184;60.256;18.694;2023-07-30T07:07:04;23.50;99.90
16158;DHT22;8184;60.256;18.694;2023-07-30T07:09:32;23.70;99.90
16158;DHT22;8184;60.256;18.694;2023-07-30T07:12:00;23.50;99.90
16158;DHT22;8184;60.256;18.694;2023-07-30T07:14:28;23.40;99.90
16158;DHT22;8184;60.256;18.694;2023-07-30T07:16:56;23.20;99.90
16158;DHT22;8184;60.256;18.694;2023-07-30T07:19:24;23.00;99.90
16158;DHT22;8184;60.256;18.694;2023-07-30T07:21:54;23.20;99.90
16158;DHT22;8184;60.256;18.694;2023-07-30T07:24:22;23.30;99.90
16158;DHT22;8184;60.256;18.694;2023-07-30T07:26:50;23.20;99.90
16158;DHT22;8184;60.256;18.694;2023-07-30T07:29:21;23.20;99.90
16158;DHT22;8184;60.256;18.694;2023-07-30T07:31:52;23.20;99.90
16158;DHT22;8184;60.256;18.694;2023-07-30T07:34:23;23.10;99.90
16158;DHT22;8184;60.256;18.694;2023-07-30T07:36:52;23.00;99.90
16158;DHT22;8184;60.256;18.694;2023-07-30T07:39:21;22.90;99.90
16158;DHT22;8184;60.256;18.694;2023-07-30T07:41:49;22.80;99.90
16158;DHT22;8184;60.256;18.694;2023-07-30T07:44:17;22.90;99.90
16158;DHT22;8184;60.256;18.694;2023-07-30T07:46:46;22.70;99.90
16158;DHT22;8184;60.256;18.694;2023-07-30T07:49:14;22.60;99.90
16158;DHT22;8184;60.256;18.694;2023-07-30T07:51:47;22.10;99.90
16158;DHT22;8184;60.256;18.694;2023-07-30T07:54:15;22.10;99.90
16158;DHT22;8184;60.256;18.694;2023-07-30T07:56:45;22.40;99.90
16158;DHT22;8184;60.256;18.694;2023-07-30T07:59:16;22.10;99.90
16158;DHT22;8184;60.256;18.694;2023-07-30T08:01:44;22.20;99.90
16158;DHT22;8184;60.256;18.694;2023-07-30T08:04:13;22.40;99.90
16158;DHT22;8184;60.256;18.694;2023-07-30T08:06:41;22.30;99.90
16158;DHT22;8184;60.256;18.694;2023-07-30T08:09:10;22.50;99.90
16158;DHT22;8184;60.256;18.694;2023-07-30T08:11:38;22.50;99.90
16158;DHT22;8184;60.256;18.694;2023-07-30T08:14:08;22.60;99.90
16158;DHT22;8184;60.256;18.694;2023-07-30T08:16:36;23.10;99.90
16158;DHT22;8184;60.256;18.694;2023-07-30T08:19:05;22.50;99.90
16158;DHT22;8184;60.256;18.694;2023-07-30T08:21:33;22.70;99.90
16158;DHT22;8184;60.256;18.694;2023-07-30T08:24:02;22.60;99.90
16158;DHT22;8184;60.256;18.694;2023-07-30T08:26:31;22.40;99.90
16158;DHT22;8184;60.256;18.694;2023-07-30T08:28:59;22.70;99.90
16158;DHT22;8184;60.256;18.694;2023-07-30T08:31:29;22.10;99.90
16158;DHT22;8184;60.256;18.694;2023-07-30T08:34:00;22.20;99.90
16158;DHT22;8184;60.256;18.694;2023-07-30T08:36:28;22.00;99.90
16158;DHT22;8184;60.256;18.694;2023-07-30T08:39:00;21.90;99.90
16158;DHT22;8184;60.256;18.694;2023-07-30T08:41:33;21.90;99.90
16158;DHT22;8184;60.256;18.694;2023-07-30T08:44:04;21.90;99.90
16158;DHT22;8184;60.256;18.694;2023-07-30T08:46:35;22.30;99.90
16158;DHT22;8184;60.256;18.694;2023-07-30T08:49:06;23.20;99.90
16158;DHT22;8184;60.256;18.694;2023-07-30T08:51:35;22.70;99.90
16158;DHT22;8184;60.256;18.694;2023-07-30T08:54:04;22.80;99.90
16158;DHT22;8184;60.256;18.694;2023-07-30T08:56:33;23.10;99.90
16158;DHT22;8184;60.256;18.694;2023-07-30T08:59:02;22.80;99.90
16158;DHT22;8184;60.256;18.694;2023-07-30T09:01:30;22.80;99.90
16158;DHT22;8184;60.256;18.694;2023-07-30T09:04:03;23.50;99.90
16158;DHT22;8184;60.256;18.694;2023-07-30T09:06:31;23.70;99.90
16158;DHT22;8184;60.256;18.694;2023-07-30T09:09:00;23.40;99.90
16158;DHT22;8184;60.256;18.694;2023-07-30T09:11:29;22.80;99.90
16158;DHT22;8184;60.256;18.694;2023-07-30T09:14:00;22.70;99.90
16158;DHT22;8184;60.256;18.694;2023-07-30T09:16:29;23.20;99.90
16158;DHT22;8184;60.256;18.694;2023-07-30T09:18:57;23.00;99.90
16158;DHT22;8184;60.256;18.694;2023-07-30T09:21:30;23.10;99.90
16158;DHT22;8184;60.256;18.694;2023-07-30T09:24:00;22.90;99.90
16158;DHT22;8184;60.256;18.694;2023-07-30T09:26:42;23.10;99.90
16158;DHT22;8184;60.256;18.694;2023-07-30T09:29:10;22.90;99.90
16158;DHT22;8184;60.256;18.694;2023-07-30T09:31:48;22.70;99.90
16158;DHT22;8184;60.256;18.694;2023-07-30T09:34:18;22.70;99.90
16158;DHT22;8184;60.256;18.694;2023-07-30T09:36:50;22.70;99.90
16158;DHT22;8184;60.256;18.694;2023-07-30T09:39:19;22.60;99.90
16158;DHT22;8184;60.256;18.694;2023-07-30T09:41:48;21.70;99.90
16158;DHT22;8184;60.256;18.694;2023-07-30T09:44:17;21.50;99.90
16158;DHT22;8184;60.256;18.694;2023-07-30T09:46:45;21.00;99.90
16158;DHT22;8184;60.256;18.694;2023-07-30T09:49:14;21.70;99.90
16158;DHT22;8184;60.256;18.694;2023-07-30T09:51:45;21.60;99.90
16158;DHT22;8184;60.256;18.694;2023-07-30T09:54:15;21.80;99.90
16158;DHT22;8184;60.256;18.694;2023-07-30T09:56:43;22.30;99.90
16158;DHT22;8184;60.256;18.694;2023-07-30T09:59:12;22.20;99.90
16158;DHT22;8184;60.256;18.694;2023-07-30T10:01:44;21.60;99.90
16158;DHT22;8184;60.256;18.694;2023-07-30T10:04:12;22.20;99.90
16158;DHT22;8184;60.256;18.694;2023-07-30T10:06:41;21.90;99.90
16158;DHT22;8184;60.256;18.694;2023-07-30T10:09:10;22.00;99.90
16158;DHT22;8184;60.256;18.694;2023-07-30T10:11:41;22.00;99.90
16158;DHT22;8184;60.256;18.694;2023-07-30T10:14:10;21.50;99.90
16158;DHT22;8184;60.256;18.694;2023-07-30T10:16:39;21.60;99.90
16158;DHT22;8184;60.256;18.694;2023-07-30T10:19:07;22.10;99.90
16158;DHT22;8184;60.256;18.694;2023-07-30T10:21:39;21.50;99.90
16158;DHT22;8184;60.256;18.694;2023-07-30T10:24:10;21.60;99.90
16158;DHT22;8184;60.256;18.694;2023-07-30T10:26:38;21.60;99.90
16158;DHT22;8184;60.256;18.694;2023-07-30T10:29:14;21.60;99.90
16158;DHT22;8184;60.256;18.694;2023-07-30T10:31:43;21.90;99.90
16158;DHT22;8184;60.256;18.694;2023-07-30T10:34:12;22.00;99.90
16158;DHT22;8184;60.256;18.694;2023-07-30T10:36:41;22.10;99.90
16158;DHT22;8184;60.256;18.694;2023-07-30T10:39:10;22.30;99.90
16158;DHT22;8184;60.256;18.694;2023-07-30T10:41:38;22.50;99.90
16158;DHT22;8184;60.256;18.694;2023-07-30T10:44:25;21.90;99.90
16158;DHT22;8184;60.256;18.694;2023-07-30T10:46:53;22.10;99.90
16158;DHT22;8184;60.256;18.694;2023-07-30T10:49:23;22.50;99.90
16158;DHT22;8184;60.256;18.694;2023-07-30T10:51:58;23.10;99.90
16158;DHT22;8184;60.256;18.694;2023-07-30T10:54:37;22.10;99.90
16158;DHT22;8184;60.256;18.694;2023-07-30T10:57:10;22.10;99.90
16158;DHT22;8184;60.256;18.694;2023-07-30T10:59:42;22.10;99.90
16158;DHT22;8184;60.256;18.694;2023-07-30T11:02:10;21.80;99.90
16158;DHT22;8184;60.256;18.694;2023-07-30T11:04:43;22.00;99.90
16158;DHT22;8184;60.256;18.694;2023-07-30T11:07:11;21.40;99.90
16158;DHT22;8184;60.256;18.694;2023-07-30T11:09:52;21.60;99.90
16158;DHT22;8184;60.256;18.694;2023-07-30T11:12:41;22.40;99.90
16158;DHT22;8184;60.256;18.694;2023-07-30T11:15:15;22.60;99.90
16158;DHT22;8184;60.256;18.694;2023-07-30T11:17:44;21.80;99.90
16158;DHT22;8184;60.256;18.694;2023-07-30T11:20:22;22.10;99.90
16158;DHT22;8184;60.256;18.694;2023-07-30T11:22:53;22.00;99.90
16158;DHT22;8184;60.256;18.694;2023-07-30T11:25:25;22.30;99.90
16158;DHT22;8184;60.256;18.694;2023-07-30T11:27:53;22.30;99.90
16158;DHT22;8184;60.256;18.694;2023-07-30T11:30:23;21.80;99.90
16158;DHT22;8184;60.256;18.694;2023-07-30T11:32:51;22.20;99.90
16158;DHT22;8184;60.256;18.694;2023-07-30T11:35:23;21.70;99.90
16158;DHT22;8184;60.256;18.694;2023-07-30T11:37:51;21.70;99.90
16158;DHT22;8184;60.256;18.694;2023-07-30T11:40:20;21.60;99.90
16158;DHT22;8184;60.256;18.694;2023-07-30T11:42:49;21.40;99.90
16158;DHT22;8184;60.256;18.694;2023-07-30T11:45:19;21.30;99.90
16158;DHT22;8184;60.256;18.694;2023-07-30T11:47:49;21.40;99.90
16158;DHT22;8184;60.256;18.694;2023-07-30T11:50:18;21.80;99.90
16158;DHT22;8184;60.256;18.694;2023-07-30T11:52:51;22.40;99.90
16158;DHT22;8184;60.256;18.694;2023-07-30T11:55:19;22.80;99.90
16158;DHT22;8184;60.256;18.694;2023-07-30T11:57:49;23.60;99.90
16158;DHT22;8184;60.256;18.694;2023-07-30T12:00:21;23.80;99.90
16158;DHT22;8184;60.256;18.694;2023-07-30T12:02:51;24.00;99.90
16158;DHT22;8184;60.256;18.694;2023-07-30T12:05:30;24.00;99.90
16158;DHT22;8184;60.256;18.694;2023-07-30T12:08:04;23.50;99.90
16158;DHT22;8184;60.256;18.694;2023-07-30T12:10:40;23.60;99.90
16158;DHT22;8184;60.256;18.694;2023-07-30T12:13:13;24.30;99.90
16158;DHT22;8184;60.256;18.694;2023-07-30T12:15:42;23.40;99.90
16158;DHT22;8184;60.256;18.694;2023-07-30T12:18:12;23.20;99.90
16158;DHT22;8184;60.256;18.694;2023-07-30T12:20:43;23.20;99.90
16158;DHT22;8184;60.256;18.694;2023-07-30T12:23:12;22.70;99.90
16158;DHT22;8184;60.256;18.694;2023-07-30T12:25:44;22.50;99.90
16158;DHT22;8184;60.256;18.694;2023-07-30T12:28:12;21.90;99.90
16158;DHT22;8184;60.256;18.694;2023-07-30T12:30:41;21.60;99.90
16158;DHT22;8184;60.256;18.694;2023-07-30T12:33:11;21.40;99.90
16158;DHT22;8184;60.256;18.694;2023-07-30T12:35:45;21.20;99.90
16158;DHT22;8184;60.256;18.694;2023-07-30T12:45:24;21.50;99.90
16158;DHT22;8184;60.256;18.694;2023-07-30T12:47:53;21.60;99.90
16158;DHT22;8184;60.256;18.694;2023-07-30T12:50:22;21.20;99.90
16158;DHT22;8184;60.256;18.694;2023-07-30T12:52:52;21.00;99.90
16158;DHT22;8184;60.256;18.694;2023-07-30T12:55:23;20.80;99.90
16158;DHT22;8184;60.256;18.694;2023-07-30T12:57:53;21.20;99.90
16158;DHT22;8184;60.256;18.694;2023-07-30T13:00:21;21.60;99.90
16158;DHT22;8184;60.256;18.694;2023-07-30T13:02:49;22.00;99.90
16158;DHT22;8184;60.256;18.694;2023-07-30T13:05:22;21.80;99.90
16158;DHT22;8184;60.256;18.694;2023-07-30T13:07:51;21.60;99.90
16158;DHT22;8184;60.256;18.694;2023-07-30T13:10:27;21.80;99.90
16158;DHT22;8184;60.256;18.694;2023-07-30T13:13:01;21.80;99.90
16158;DHT22;8184;60.256;18.694;2023-07-30T13:15:52;21.90;99.90
16158;DHT22;8184;60.256;18.694;2023-07-30T13:18:29;21.50;99.90
16158;DHT22;8184;60.256;18.694;2023-07-30T13:21:03;21.40;99.90
16158;DHT22;8184;60.256;18.694;2023-07-30T13:23:32;20.90;99.90
16158;DHT22;8184;60.256;18.694;2023-07-30T13:26:01;20.90;99.90
16158;DHT22;8184;60.256;18.694;2023-07-30T13:28:30;20.00;99.90
16158;DHT22;8184;60.256;18.694;2023-07-30T13:31:02;18.40;99.90
16158;DHT22;8184;60.256;18.694;2023-07-30T13:33:38;17.80;99.90
16158;DHT22;8184;60.256;18.694;2023-07-30T13:36:14;18.40;99.90
16158;DHT22;8184;60.256;18.694;2023-07-30T13:38:53;18.80;99.90
16158;DHT22;8184;60.256;18.694;2023-07-30T13:41:21;19.20;99.90
16158;DHT22;8184;60.256;18.694;2023-07-30T13:43:50;19.20;99.90
16158;DHT22;8184;60.256;18.694;2023-07-30T13:46:25;19.20;99.90
16158;DHT22;8184;60.256;18.694;2023-07-30T13:48:57;18.70;99.90
16158;DHT22;8184;60.256;18.694;2023-07-30T13:51:28;18.80;99.90
16158;DHT22;8184;60.256;18.694;2023-07-30T13:54:00;18.70;99.90
16158;DHT22;8184;60.256;18.694;2023-07-30T13:56:28;18.10;99.90
16158;DHT22;8184;60.256;18.694;2023-07-30T13:58:57;18.80;99.90
16158;DHT22;8184;60.256;18.694;2023-07-30T14:01:25;19.20;99.90
16158;DHT22;8184;60.256;18.694;2023-07-30T14:03:56;19.30;99.90
16158;DHT22;8184;60.256;18.694;2023-07-30T14:06:24;19.40;99.90
16158;DHT22;8184;60.256;18.694;2023-07-30T14:08:52;19.30;99.90
16158;DHT22;8184;60.256;18.694;2023-07-30T14:11:22;19.40;99.90
16158;DHT22;8184;60.256;18.694;2023-07-30T14:13:52;19.50;99.90
16158;DHT22;8184;60.256;18.694;2023-07-30T14:16:25;19.60;99.90
16158;DHT22;8184;60.256;18.694;2023-07-30T14:18:54;19.60;99.90
16158;DHT22;8184;60.256;18.694;2023-07-30T14:21:24;19.60;99.90
16158;DHT22;8184;60.256;18.694;2023-07-30T14:23:53;19.50;99.90
16158;DHT22;8184;60.256;18.694;2023-07-30T14:26:22;19.50;99.90
16158;DHT22;8184;60.256;18.694;2023-07-30T14:28:51;19.70;99.90
16158;DHT22;8184;60.256;18.694;2023-07-30T14:31:19;19.70;99.90
16158;DHT22;8184;60.256;18.694;2023-07-30T14:33:47;19.70;99.90
16158;DHT22;8184;60.256;18.694;2023-07-30T14:36:18;20.10;99.90
16158;DHT22;8184;60.256;18.694;2023-07-30T14:38:47;19.60;99.90
16158;DHT22;8184;60.256;18.694;2023-07-30T14:41:15;19.60;99.90
16158;DHT22;8184;60.256;18.694;2023-07-30T14:43:45;19.50;99.90
16158;DHT22;8184;60.256;18.694;2023-07-30T14:46:13;19.50;99.90
16158;DHT22;8184;60.256;18.694;2023-07-30T14:48:42;19.50;99.90
16158;DHT22;8184;60.256;18.694;2023-07-30T14:51:13;19.50;99.90
16158;DHT22;8184;60.256;18.694;2023-07-30T14:53:47;19.80;99.90
16158;DHT22;8184;60.256;18.694;2023-07-30T14:56:15;19.20;99.90
16158;DHT22;8184;60.256;18.694;2023-07-30T14:58:45;19.10;99.90
16158;DHT22;8184;60.256;18.694;2023-07-30T15:01:13;19.00;99.90
16158;DHT22;8184;60.256;18.694;2023-07-30T15:03:44;19.00;99.90
16158;DHT22;8184;60.256;18.694;2023-07-30T15:06:12;19.10;99.90
16158;DHT22;8184;60.256;18.694;2023-07-30T15:08:40;18.80;99.90
16158;DHT22;8184;60.256;18.694;2023-07-30T15:11:09;18.70;99.90
16158;DHT22;8184;60.256;18.694;2023-07-30T15:13:40;18.80;99.90
16158;DHT22;8184;60.256;18.694;2023-07-30T15:16:10;19.00;99.90
16158;DHT22;8184;60.256;18.694;2023-07-30T15:18:38;19.10;99.90
16158;DHT22;8184;60.256;18.694;2023-07-30T15:21:09;19.10;99.90
16158;DHT22;8184;60.256;18.694;2023-07-30T15:23:37;19.00;99.90
16158;DHT22;8184;60.256;18.694;2023-07-30T15:26:06;19.20;99.90
16158;DHT22;8184;60.256;18.694;2023-07-30T15:28:34;19.10;99.90
16158;DHT22;8184;60.256;18.694;2023-07-30T15:31:03;19.20;99.90
16158;DHT22;8184;60.256;18.694;2023-07-30T15:33:32;19.20;99.90
16158;DHT22;8184;60.256;18.694;2023-07-30T15:36:02;19.30;99.90
16158;DHT22;8184;60.256;18.694;2023-07-30T15:38:30;19.20;99.90
16158;DHT22;8184;60.256;18.694;2023-07-30T15:40:58;19.30;99.90
16158;DHT22;8184;60.256;18.694;2023-07-30T15:43:27;19.10;99.90
16158;DHT22;8184;60.256;18.694;2023-07-30T15:45:55;19.20;99.90
16158;DHT22;8184;60.256;18.694;2023-07-30T15:48:28;19.10;99.90
16158;DHT22;8184;60.256;18.694;2023-07-30T15:51:01;19.00;99.90
16158;DHT22;8184;60.256;18.694;2023-07-30T15:53:38;18.80;99.90